D/T METAR WX W/DIR W/SPE G/SPE TEMP DEWP
23/05/19 14:20 EGMD 231320Z 22014KT CAVOK 19/11 Q1017 SW (220°) 16.1mph 19°C 11°C
23/05/19 13:50 EGMD 231250Z 23013KT CAVOK 19/11 Q1017 SW (230°) 15.0mph 19°C 11°C
23/05/19 13:20 EGMD 231220Z 21011KT CAVOK 18/11 Q1017 SSW (210°) 12.7mph 18°C 11°C
23/05/19 12:20 EGMD 231120Z 18009KT 150V220 CAVOK 18/11 Q1017 S (180°) 10.4mph 18°C 11°C
23/05/19 11:50 EGMD 231050Z 18010KT CAVOK 18/11 Q1017 S (180°) 11.5mph 18°C 11°C
23/05/19 11:20 EGMD 231020Z 19009KT CAVOK 18/09 Q1018 S (190°) 10.4mph 18°C 9°C
23/05/19 10:50 EGMD 230950Z 20007KT CAVOK 18/08 Q1018 SSW (200°) 8.1mph 18°C 8°C
23/05/19 10:20 EGMD 230920Z 19007KT CAVOK 17/09 Q1018 S (190°) 8.1mph 17°C 9°C
23/05/19 09:50 EGMD 230850Z 18005KT 150V230 CAVOK 17/10 Q1018 S (180°) 5.8mph 17°C 10°C
23/05/19 09:20 EGMD 230820Z 18004KT 150V210 CAVOK 16/10 Q1018 S (180°) 4.6mph 16°C 10°C
23/05/19 08:50 EGMD 230750Z 19004KT 150V230 CAVOK 15/11 Q1018 S (190°) 4.6mph 15°C 11°C
23/05/19 08:20 EGMD 230720Z 19004KT 160V230 CAVOK 15/10 Q1018 S (190°) 4.6mph 15°C 10°C
23/05/19 07:50 EGMD 230650Z AUTO VRB02KT 9999 NCD 14/12 Q1018 N (0°) 2.3mph 14°C 12°C
23/05/19 07:20 EGMD 230620Z AUTO 00000KT 9999 NCD 12/11 Q1018 N (0°) 12°C 11°C
23/05/19 06:50 EGMD 230550Z AUTO VRB01KT 9999 NCD 09/09 Q1018 N (0°) 1.2mph 9°C 9°C
23/05/19 06:20 EGMD 230520Z AUTO 32003KT 3800 BR NCD 08/08 Q1018 BR NW (320°) 3.5mph 8°C 8°C
23/05/19 05:50 EGMD 230450Z AUTO 32002KT 2700 BR NCD 06/06 Q1018 BR NW (320°) 2.3mph 6°C 6°C
23/05/19 05:20 EGMD 230420Z AUTO 30002KT 9999 NCD 07/06 Q1018 WNW (300°) 2.3mph 7°C 6°C
23/05/19 04:50 EGMD 230350Z AUTO 27003KT 9999 NCD 07/06 Q1018 W (270°) 3.5mph 7°C 6°C
23/05/19 04:20 EGMD 230320Z AUTO 27004KT 9999 NCD 07/07 Q1018 W (270°) 4.6mph 7°C 7°C
23/05/19 03:50 EGMD 230250Z AUTO 27004KT 9999 NCD 06/06 Q1018 W (270°) 4.6mph 6°C 6°C
23/05/19 03:20 EGMD 230220Z AUTO 26003KT 9999 NCD 06/06 Q1018 W (260°) 3.5mph 6°C 6°C
23/05/19 02:50 EGMD 230150Z AUTO 26003KT 9999 NCD 06/06 Q1019 W (260°) 3.5mph 6°C 6°C
23/05/19 02:20 EGMD 230120Z AUTO 29001KT 0100 FG FEW002/// 06/06 Q1019 FG WNW (290°) 1.2mph 6°C 6°C
23/05/19 01:50 EGMD 230050Z AUTO 30003KT 0100 FG OVC001/// 08/07 Q1019 FG WNW (300°) 3.5mph 8°C 7°C
23/05/19 01:20 EGMD 230020Z AUTO 31004KT 290V350 0150 FG SCT001/// 07/07 Q1019 FG NW (310°) 4.6mph 7°C 7°C
23/05/19 00:50 EGMD 222350Z AUTO 25005KT 6000 FEW003/// 10/10 Q1019 WSW (250°) 5.8mph 10°C 10°C
23/05/19 00:20 EGMD 222320Z AUTO 23006KT 1800 BR NCD 10/09 Q1019 BR SW (230°) 6.9mph 10°C 9°C
22/05/19 23:50 EGMD 222250Z AUTO 22004KT 4700 BR NCD 11/10 Q1019 BR SW (220°) 4.6mph 11°C 10°C
22/05/19 23:20 EGMD 222220Z AUTO 21005KT 5000 BR NCD 11/10 Q1019 BR SSW (210°) 5.8mph 11°C 10°C
22/05/19 22:50 EGMD 222150Z AUTO 21006KT 7000 NCD 11/10 Q1019 SSW (210°) 6.9mph 11°C 10°C
22/05/19 22:20 EGMD 222120Z AUTO 21006KT 9999 NCD 11/10 Q1019 SSW (210°) 6.9mph 11°C 10°C
22/05/19 21:50 EGMD 222050Z AUTO 21006KT 9999 NCD 11/10 Q1019 SSW (210°) 6.9mph 11°C 10°C
22/05/19 21:20 EGMD 222020Z AUTO 21004KT 9999 NCD 12/10 Q1019 SSW (210°) 4.6mph 12°C 10°C
22/05/19 20:50 EGMD 221950Z AUTO 22006KT 9999 NCD 12/11 Q1019 SW (220°) 6.9mph 12°C 11°C
22/05/19 20:20 EGMD 221920Z AUTO 22007KT 9999 NCD 13/12 Q1019 SW (220°) 8.1mph 13°C 12°C
22/05/19 19:50 EGMD 221850Z AUTO 22008KT 9999 NCD 14/12 Q1019 SW (220°) 9.2mph 14°C 12°C
22/05/19 19:20 EGMD 221820Z AUTO 20007KT 9999 NCD 15/12 Q1019 SSW (200°) 8.1mph 15°C 12°C
22/05/19 18:50 EGMD 221750Z AUTO 20007KT 9999 NCD 15/12 Q1020 SSW (200°) 8.1mph 15°C 12°C
22/05/19 18:20 EGMD 221720Z 20008KT CAVOK 15/11 Q1019 SSW (200°) 9.2mph 15°C 11°C
22/05/19 17:50 EGMD 221650Z 20008KT CAVOK 16/11 Q1020 SSW (200°) 9.2mph 16°C 11°C
22/05/19 17:20 EGMD 221620Z 20007KT 170V230 CAVOK 17/11 Q1020 SSW (200°) 8.1mph 17°C 11°C
22/05/19 16:50 EGMD 221550Z 21008KT CAVOK 17/09 Q1020 SSW (210°) 9.2mph 17°C 9°C
22/05/19 16:20 EGMD 221520Z 21008KT 180V240 CAVOK 17/09 Q1020 SSW (210°) 9.2mph 17°C 9°C
22/05/19 15:20 EGMD 221420Z 19008KT 9999 FEW045 17/06 Q1020 S (190°) 9.2mph 17°C 6°C
22/05/19 14:50 EGMD 221350Z 20008KT 9999 FEW045 17/03 Q1020 SSW (200°) 9.2mph 17°C 3°C
22/05/19 14:20 EGMD 221320Z 18007KT 9999 FEW030 17/07 Q1021 S (180°) 8.1mph 17°C 7°C
22/05/19 13:50 EGMD 221250Z 20007KT 9999 FEW030 17/07 Q1021 SSW (200°) 8.1mph 17°C 7°C